createdAt,value
2022-09-05T00:00:02.069Z,100853.59
2022-09-05T00:02:51.453Z,100866.63
2022-09-05T00:05:38.561Z,100861.56
2022-09-05T00:08:23.527Z,100868.66
2022-09-05T00:11:16.712Z,100868.72
2022-09-05T00:13:58.699Z,100862.78
2022-09-05T00:16:47.108Z,100864.88
2022-09-05T00:24:21.560Z,100875.72
2022-09-05T00:24:34.455Z,100861.53
2022-09-05T00:25:35.298Z,100870.94
2022-09-05T00:28:14.573Z,100861.34
2022-09-05T00:31:55.940Z,100863.97
2022-09-05T00:34:47.799Z,100865.09
2022-09-05T00:37:32.029Z,100869.28
2022-09-05T00:40:20.606Z,100866.63
2022-09-05T00:42:50.960Z,100868.19
2022-09-05T00:45:25.304Z,100866.38
2022-09-05T00:48:01.572Z,100870.75
2022-09-05T00:50:37.569Z,100816.56
2022-09-05T00:53:12.426Z,100862.63
2022-09-05T00:55:48.789Z,100802.19
2022-09-05T00:58:48.742Z,100868.34
2022-09-05T01:01:33.289Z,100836.81
2022-09-05T01:04:24.602Z,100870.50
2022-09-05T01:07:10.411Z,100871.47
2022-09-05T01:09:52.411Z,100853.63
2022-09-05T01:12:36.326Z,100715.63
2022-09-05T01:15:18.943Z,100862.50
2022-09-05T01:18:04.435Z,100865.28
2022-09-05T01:21:12.736Z,100869.97
2022-09-05T01:24:04.290Z,100871.72
2022-09-05T01:27:01.212Z,100858.44
2022-09-05T01:29:41.541Z,100879.75
2022-09-05T01:32:22.423Z,100874.88
2022-09-05T01:35:20.462Z,100870.50
2022-09-05T01:37:51.990Z,100867.28
2022-09-05T01:40:29.031Z,100819.16
2022-09-05T01:43:17.976Z,100864.34
2022-09-05T01:45:51.316Z,100860.91
2022-09-05T01:48:31.387Z,100833.84
2022-09-05T01:51:28.890Z,100750.97
2022-09-05T01:54:23.876Z,100862.91
2022-09-05T01:57:06.141Z,100857.78
2022-09-05T01:59:47.078Z,100859.97
2022-09-05T02:02:25.244Z,100724.59
2022-09-05T02:05:47.730Z,100860.84
2022-09-05T02:08:41.727Z,100866.25
2022-09-05T02:11:11.602Z,100848.75
2022-09-05T02:13:52.375Z,100863.00
2022-09-05T02:16:26.984Z,100862.75
2022-09-05T02:19:05.448Z,100866.31
2022-09-05T02:21:55.749Z,100867.34
2022-09-05T02:24:29.305Z,100862.25
2022-09-05T02:27:33.173Z,100866.00
2022-09-05T02:30:13.825Z,100505.06
2022-09-05T02:32:55.374Z,100868.63
2022-09-05T02:35:32.072Z,100865.28
2022-09-05T02:41:01.195Z,100802.56
2022-09-05T02:45:14.351Z,100866.59
2022-09-05T02:45:19.933Z,100861.16
2022-09-05T02:46:51.168Z,100862.97
2022-09-05T02:50:50.089Z,100840.03
2022-09-05T02:57:29.247Z,100857.56
2022-09-05T02:57:41.939Z,100861.09
2022-09-05T02:58:42.766Z,100857.72
2022-09-05T03:01:33.396Z,100850.00
2022-09-05T03:04:17.154Z,100841.25
2022-09-05T03:07:01.641Z,100788.09
2022-09-05T03:09:41.563Z,100860.91
2022-09-05T03:12:48.684Z,100854.97
2022-09-05T03:15:45.452Z,100855.59
2022-09-05T03:19:04.109Z,100856.56
2022-09-05T03:22:22.617Z,100855.81
2022-09-05T03:25:21.143Z,100853.00
2022-09-05T03:28:15.099Z,100855.97
2022-09-05T03:30:56.880Z,100852.34
2022-09-05T03:34:03.428Z,100851.69
2022-09-05T03:36:54.285Z,100842.78
2022-09-05T03:40:16.771Z,100850.56
2022-09-05T03:43:00.310Z,100814.69
2022-09-05T03:45:58.956Z,100860.66
2022-09-05T03:49:02.824Z,100854.47
2022-09-05T03:57:06.920Z,100841.56
2022-09-05T03:57:15.588Z,100801.47
2022-09-05T03:58:56.227Z,100842.00
2022-09-05T04:02:43.709Z,100849.06
2022-09-05T04:08:26.467Z,100875.63
2022-09-05T04:08:28.481Z,100864.38
2022-09-05T04:10:30.599Z,100870.81
2022-09-05T04:13:04.418Z,100863.50
2022-09-05T04:15:38.182Z,100876.53
2022-09-05T04:18:28.490Z,100850.09
2022-09-05T04:21:06.145Z,100876.31
2022-09-05T04:23:47.219Z,100837.63
2022-09-05T04:26:31.259Z,100797.31
2022-09-05T04:29:15.201Z,100881.13
2022-09-05T04:31:56.292Z,100872.22
2022-09-05T04:34:51.278Z,100872.63
2022-09-05T04:37:48.167Z,100883.78
2022-09-05T04:40:39.387Z,100877.56
2022-09-05T04:43:14.737Z,100863.59
2022-09-05T04:45:47.169Z,100887.94
2022-09-05T04:48:21.648Z,100883.16
2022-09-05T04:51:06.167Z,100890.16
2022-09-05T04:53:56.555Z,100889.28
2022-09-05T04:56:31.797Z,100867.25
2022-09-05T05:01:13.188Z,100887.47
2022-09-05T05:06:18.519Z,100884.66
2022-09-05T05:06:18.703Z,100896.88
2022-09-05T05:07:46.062Z,100903.34
2022-09-05T05:12:22.520Z,100883.31
2022-09-05T05:17:58.679Z,100896.34
2022-09-05T05:18:09.410Z,100910.16
2022-09-05T05:19:17.221Z,100906.09
2022-09-05T05:21:50.304Z,100885.84
2022-09-05T05:24:21.986Z,100908.41
2022-09-05T05:26:57.307Z,100910.84
2022-09-05T05:29:32.982Z,100916.84
2022-09-05T05:32:07.695Z,100914.19
2022-09-05T05:34:42.729Z,100919.53
2022-09-05T05:37:20.369Z,100856.19
2022-09-05T05:39:59.508Z,100931.69
2022-09-05T05:42:27.712Z,100900.78
2022-09-05T05:44:58.433Z,100926.09
2022-09-05T05:47:31.882Z,100927.47
2022-09-05T05:50:11.762Z,100937.09
2022-09-05T05:53:03.122Z,100925.97
2022-09-05T05:55:53.535Z,100920.72
2022-09-05T05:58:47.270Z,100931.03
2022-09-05T06:01:41.486Z,100924.59
2022-09-05T06:04:49.144Z,100933.19
2022-09-05T06:07:33.330Z,100936.91
2022-09-05T06:14:51.252Z,100931.88
2022-09-05T06:15:08.811Z,100908.00
2022-09-05T06:17:28.579Z,100907.50
2022-09-05T06:22:04.096Z,100935.78
2022-09-05T06:23:54.105Z,100931.97
2022-09-05T06:26:53.062Z,100933.19
2022-09-05T06:29:38.649Z,100949.00
2022-09-05T06:32:25.111Z,100941.41
2022-09-05T06:35:19.904Z,100931.88
2022-09-05T06:38:01.294Z,100936.75
2022-09-05T06:40:35.964Z,100945.16
2022-09-05T06:43:17.525Z,100922.34
2022-09-05T06:46:07.633Z,100929.44
2022-09-05T06:49:28.417Z,100947.16
2022-09-05T06:52:16.516Z,100946.28
2022-09-05T06:55:11.749Z,100950.03
2022-09-05T06:58:10.811Z,100935.16
2022-09-05T07:00:47.763Z,100943.47
2022-09-05T07:03:43.027Z,100938.97
2022-09-05T07:06:19.729Z,100950.16
2022-09-05T07:08:54.009Z,100936.13
2022-09-05T07:11:25.815Z,100952.41
2022-09-05T07:14:03.394Z,100904.34
2022-09-05T07:16:43.873Z,100938.00
2022-09-05T07:19:27.081Z,100948.78
2022-09-05T07:22:46.210Z,100953.31
2022-09-05T07:25:18.309Z,100937.31
2022-09-05T07:28:25.705Z,100943.16
2022-09-05T07:30:48.937Z,100938.59
2022-09-05T07:33:21.075Z,100955.47
2022-09-05T07:35:51.619Z,100963.59
2022-09-05T07:38:26.765Z,100911.22
2022-09-05T07:41:24.286Z,100965.47
2022-09-05T07:43:56.767Z,100933.09
2022-09-05T07:46:27.724Z,100966.19
2022-09-05T07:49:02.734Z,100965.72
2022-09-05T07:56:46.019Z,100969.53
2022-09-05T07:57:08.676Z,100961.72
2022-09-05T07:57:31.377Z,100966.47
2022-09-05T08:00:08.258Z,100969.44
2022-09-05T08:02:55.055Z,100960.13
2022-09-05T08:05:35.241Z,100968.72
2022-09-05T08:08:08.958Z,100958.25
2022-09-05T08:11:22.629Z,100934.75
2022-09-05T08:13:51.537Z,100960.44
2022-09-05T08:16:24.896Z,100899.25
2022-09-05T08:18:57.481Z,100954.84
2022-09-05T08:21:39.255Z,100955.88
2022-09-05T08:24:13.763Z,100957.75
2022-09-05T08:26:47.424Z,100957.00
2022-09-05T08:29:27.474Z,100954.47
2022-09-05T08:32:03.268Z,100964.66
2022-09-05T08:34:45.260Z,100966.13
2022-09-05T08:37:23.030Z,100946.78
2022-09-05T08:39:58.317Z,100953.97
2022-09-05T08:43:53.137Z,100912.41
2022-09-05T08:46:46.453Z,100958.00
2022-09-05T08:48:50.753Z,100934.16
2022-09-05T08:51:35.195Z,100919.28
2022-09-05T08:54:19.863Z,100945.88
2022-09-05T08:57:01.968Z,100937.53
2022-09-05T09:00:06.300Z,100917.06
2022-09-05T09:03:04.878Z,100931.44
2022-09-05T09:06:17.816Z,100929.94
2022-09-05T09:09:11.476Z,100927.34
2022-09-05T09:11:57.542Z,100906.84
2022-09-05T09:14:58.395Z,100917.91
2022-09-05T09:17:42.941Z,100923.72
2022-09-05T09:20:33.630Z,100914.84
2022-09-05T09:23:06.400Z,100910.81
2022-09-05T09:25:42.586Z,100918.91
2022-09-05T09:28:51.754Z,100913.47
2022-09-05T09:31:44.137Z,100912.97
2022-09-05T09:34:38.185Z,100850.75
2022-09-05T09:37:51.885Z,100912.69
2022-09-05T09:41:02.360Z,100900.63
2022-09-05T09:43:58.663Z,100901.31
2022-09-05T09:46:39.537Z,100853.31
2022-09-05T09:49:23.661Z,100897.78
2022-09-05T09:52:29.052Z,100894.69
2022-09-05T09:55:41.112Z,100896.44
2022-09-05T09:58:37.981Z,100900.16
2022-09-05T10:01:35.865Z,100872.47
2022-09-05T10:09:46.207Z,100869.09
2022-09-05T10:10:48.194Z,100868.19
2022-09-05T10:11:52.106Z,100886.53
2022-09-05T10:14:47.873Z,100871.81
2022-09-05T10:18:15.642Z,100865.16
2022-09-05T10:21:15.027Z,100868.25
2022-09-05T10:24:28.170Z,100866.81
2022-09-05T10:27:20.927Z,100853.34
2022-09-05T10:30:06.381Z,100862.06
2022-09-05T10:35:16.997Z,100846.72
2022-09-05T10:35:59.893Z,100864.91
2022-09-05T10:38:40.286Z,100865.50
2022-09-05T10:41:21.821Z,100867.66
2022-09-05T10:43:55.425Z,100865.94
2022-09-05T10:46:54.481Z,100765.25
2022-09-05T10:49:30.156Z,100860.28
2022-09-05T10:52:13.134Z,100857.53
2022-09-05T10:55:13.634Z,100847.72
2022-09-05T10:57:57.341Z,100821.88
2022-09-05T11:02:20.818Z,100841.06
2022-09-05T11:03:46.712Z,100837.84
2022-09-05T11:06:24.648Z,100836.53
2022-09-05T11:09:03.277Z,100831.38
2022-09-05T11:11:46.142Z,100797.03
2022-09-05T11:14:46.499Z,100829.09
2022-09-05T11:17:26.863Z,100823.06
2022-09-05T11:20:07.496Z,100827.59
2022-09-05T11:22:54.269Z,100819.78
2022-09-05T11:25:40.008Z,100820.59
2022-09-05T11:28:16.034Z,100806.16
2022-09-05T11:30:52.064Z,100814.34
2022-09-05T11:39:50.617Z,100798.13
2022-09-05T11:40:09.702Z,100816.56
2022-09-05T11:40:38.216Z,100799.75
2022-09-05T11:43:39.188Z,100813.22
2022-09-05T11:46:30.146Z,100815.47
2022-09-05T11:49:34.969Z,100808.41
2022-09-05T11:52:35.245Z,100804.16
2022-09-05T11:55:24.635Z,100798.34
2022-09-05T11:58:43.930Z,100800.00
2022-09-05T12:01:41.199Z,100794.91
2022-09-05T12:04:26.072Z,100791.91
2022-09-05T12:07:33.700Z,100793.16
2022-09-05T12:10:47.279Z,100781.78
2022-09-05T12:13:29.293Z,100792.25
2022-09-05T12:16:07.528Z,100783.81
2022-09-05T12:18:45.772Z,100782.63
2022-09-05T12:21:27.422Z,100753.66
2022-09-05T12:24:54.966Z,100763.66
2022-09-05T12:27:39.633Z,100653.63
2022-09-05T12:29:54.256Z,100776.22
2022-09-05T12:33:52.404Z,100778.84
2022-09-05T12:36:11.793Z,100772.06
2022-09-05T12:39:40.253Z,100756.13
2022-09-05T12:41:44.626Z,100765.88
2022-09-05T12:44:38.435Z,100742.66
2022-09-05T12:47:19.133Z,100756.38
2022-09-05T12:50:02.743Z,100744.72
2022-09-05T12:52:43.322Z,100748.34
2022-09-05T12:55:20.172Z,100749.31
2022-09-05T13:02:57.033Z,100748.75
2022-09-05T13:03:13.207Z,100751.59
2022-09-05T13:03:59.354Z,100749.00
2022-09-05T13:06:31.082Z,100749.38
2022-09-05T13:09:06.975Z,100642.84
2022-09-05T13:15:02.800Z,100702.97
2022-09-05T13:15:07.637Z,100733.97
2022-09-05T13:17:50.522Z,100715.78
2022-09-05T13:20:22.266Z,100723.31
2022-09-05T13:22:54.267Z,100659.38
2022-09-05T13:25:27.051Z,100696.31
2022-09-05T13:28:02.038Z,100724.66
2022-09-05T13:37:56.483Z,100722.38
2022-09-05T13:37:59.737Z,100706.88
2022-09-05T13:38:11.251Z,100720.97
2022-09-05T13:39:12.214Z,100699.06
2022-09-05T13:41:49.520Z,100705.75
2022-09-05T13:44:27.677Z,100707.16
2022-09-05T13:47:00.865Z,100704.50
2022-09-05T13:49:33.295Z,100691.56
2022-09-05T13:52:25.827Z,100695.34
2022-09-05T13:55:04.363Z,100698.66
2022-09-05T13:57:39.357Z,100693.84
2022-09-05T14:00:46.770Z,100694.94
2022-09-05T14:04:04.519Z,100687.72
2022-09-05T14:10:24.306Z,100685.47
2022-09-05T14:13:02.532Z,100678.22
2022-09-05T14:15:41.052Z,100676.13
2022-09-05T14:18:21.197Z,100597.38
2022-09-05T14:21:13.718Z,100678.22
2022-09-05T14:23:48.507Z,100677.75
2022-09-05T14:26:23.602Z,100679.56
2022-09-05T14:29:03.285Z,100653.16
2022-09-05T14:36:16.566Z,100671.34
2022-09-05T14:37:42.038Z,100657.94
2022-09-05T14:38:11.685Z,100674.69
2022-09-05T14:41:31.714Z,100668.00
2022-09-05T14:44:41.220Z,100672.41
2022-09-05T14:47:35.042Z,100666.56
2022-09-05T14:50:21.127Z,100658.28
2022-09-05T14:56:44.379Z,100656.75
2022-09-05T15:02:49.555Z,100642.91
2022-09-05T15:02:49.758Z,100642.84
2022-09-05T15:04:36.262Z,100641.13
2022-09-05T15:07:15.722Z,100626.78
2022-09-05T15:12:14.944Z,100637.66
2022-09-05T15:12:43.929Z,100646.78
2022-09-05T15:15:25.751Z,100648.31
2022-09-05T15:17:59.806Z,100647.41
2022-09-05T15:20:31.181Z,100618.44
2022-09-05T15:23:11.063Z,100639.25
2022-09-05T15:25:47.123Z,100638.53
2022-09-05T15:28:23.003Z,100551.16
2022-09-05T15:31:00.047Z,100618.91
2022-09-05T15:33:31.087Z,100616.16
2022-09-05T15:36:00.807Z,100608.69
2022-09-05T15:38:46.298Z,100589.41
2022-09-05T15:41:24.687Z,100591.69
2022-09-05T15:44:09.497Z,100642.31
2022-09-05T15:46:47.408Z,100612.91
2022-09-05T15:49:29.372Z,100587.94
2022-09-05T15:52:00.048Z,100630.22
2022-09-05T15:54:37.459Z,100627.00
2022-09-05T15:57:18.133Z,100621.13
2022-09-05T15:59:49.705Z,100609.22
2022-09-05T16:02:24.507Z,100595.50
2022-09-05T16:10:34.677Z,100604.47
2022-09-05T16:10:40.247Z,100626.91
2022-09-05T16:12:07.435Z,100618.88
2022-09-05T16:14:24.335Z,100622.78
2022-09-05T16:23:18.192Z,100598.91
2022-09-05T16:23:25.292Z,100624.97
2022-09-05T16:23:31.627Z,100603.69
2022-09-05T16:25:34.776Z,100613.81
2022-09-05T16:28:06.321Z,100616.41
2022-09-05T16:30:36.536Z,100619.53
2022-09-05T16:33:09.299Z,100620.19
2022-09-05T16:35:43.107Z,100590.28
2022-09-05T16:38:25.825Z,100612.75
2022-09-05T16:41:14.372Z,100505.16
2022-09-05T16:43:50.079Z,100614.78
2022-09-05T16:46:23.681Z,100599.56
2022-09-05T16:48:58.548Z,100608.66
2022-09-05T16:51:36.486Z,100596.44
2022-09-05T16:54:13.343Z,100605.41
2022-09-05T16:56:46.020Z,100590.38
2022-09-05T16:59:17.700Z,100608.28
2022-09-05T17:02:10.051Z,100601.69
2022-09-05T17:05:02.949Z,100603.19
2022-09-05T17:07:47.088Z,100596.03
2022-09-05T17:10:20.507Z,100597.50
2022-09-05T17:12:52.333Z,100570.78
2022-09-05T17:15:23.606Z,100571.81
2022-09-05T17:18:19.790Z,100592.75
2022-09-05T17:20:50.740Z,100613.94
2022-09-05T17:28:44.469Z,100599.56
2022-09-05T17:29:19.341Z,100606.81
2022-09-05T17:32:47.154Z,100595.72
2022-09-05T17:35:42.847Z,100593.19
2022-09-05T17:38:47.799Z,100592.03
2022-09-05T17:41:43.326Z,100594.50
2022-09-05T17:44:19.387Z,100568.47
2022-09-05T17:47:07.045Z,100521.59
2022-09-05T17:49:45.800Z,100591.81
2022-09-05T17:52:22.879Z,100600.19
2022-09-05T17:54:55.323Z,100606.25
2022-09-05T17:57:45.453Z,100596.16
2022-09-05T18:01:04.504Z,100596.16
2022-09-05T18:04:17.955Z,100605.09
2022-09-05T18:06:59.503Z,100461.09
2022-09-05T18:10:11.888Z,100596.34
2022-09-05T18:16:13.329Z,100613.94
2022-09-05T18:19:32.787Z,100610.59
2022-09-05T18:21:50.463Z,100602.22
2022-09-05T18:27:30.982Z,100615.19
2022-09-05T18:30:29.141Z,100606.56
2022-09-05T18:33:55.516Z,100619.03
2022-09-05T18:36:36.046Z,100630.41
2022-09-05T18:39:43.254Z,100628.16
2022-09-05T18:42:25.994Z,100585.16
2022-09-05T18:45:14.769Z,100606.78
2022-09-05T18:47:53.131Z,100613.53
2022-09-05T18:50:32.313Z,100630.72
2022-09-05T18:53:10.531Z,100626.97
2022-09-05T18:56:12.182Z,100460.13
2022-09-05T18:58:52.200Z,100623.75
2022-09-05T19:01:33.894Z,100637.00
2022-09-05T19:04:09.790Z,100556.13
2022-09-05T19:07:07.915Z,100643.59
2022-09-05T19:09:40.208Z,100659.59
2022-09-05T19:12:33.861Z,100656.00
2022-09-05T19:15:08.566Z,100650.38
2022-09-05T19:17:47.113Z,100590.38
2022-09-05T19:20:32.202Z,100654.94
2022-09-05T19:23:10.314Z,100650.28
2022-09-05T19:25:42.742Z,100633.13
2022-09-05T19:36:45.970Z,100650.31
2022-09-05T19:36:46.370Z,100654.53
2022-09-05T19:37:04.608Z,100632.09
2022-09-05T19:43:42.819Z,100658.56
2022-09-05T19:47:33.996Z,100649.91
2022-09-05T19:47:50.724Z,100659.84
2022-09-05T19:48:19.159Z,100656.56
2022-09-05T19:50:48.247Z,100598.75
2022-09-05T19:53:19.681Z,100653.56
2022-09-05T19:55:48.585Z,100654.78
2022-09-05T19:58:20.904Z,100649.03
2022-09-05T20:01:02.213Z,100626.28
2022-09-05T20:03:39.500Z,100647.09
2022-09-05T20:06:28.770Z,100651.97
2022-09-05T20:09:16.896Z,100647.03
2022-09-05T20:11:49.981Z,100591.53
2022-09-05T20:14:21.068Z,100621.72
2022-09-05T20:16:50.458Z,100652.47
2022-09-05T20:19:28.397Z,100652.25
2022-09-05T20:21:59.408Z,100634.44
2022-09-05T20:24:41.499Z,100656.31
2022-09-05T20:27:10.100Z,100656.81
2022-09-05T20:29:56.426Z,100644.53
2022-09-05T20:32:39.892Z,100589.94
2022-09-05T20:38:34.276Z,100652.66
2022-09-05T20:43:24.924Z,100652.53
2022-09-05T20:43:31.023Z,100617.00
2022-09-05T20:43:56.502Z,100643.75
2022-09-05T20:51:18.570Z,100650.47
2022-09-05T20:54:14.956Z,100626.66
2022-09-05T20:54:19.060Z,100642.81
2022-09-05T20:55:40.247Z,100653.94
2022-09-05T20:58:16.324Z,100618.25
2022-09-05T21:01:20.125Z,100658.19
2022-09-05T21:03:41.007Z,100664.00
2022-09-05T21:06:22.137Z,100650.25
2022-09-05T21:08:51.291Z,100658.91
2022-09-05T21:11:30.279Z,100662.13
2022-09-05T21:14:03.557Z,100670.81
2022-09-05T21:16:35.613Z,100668.84
2022-09-05T21:19:03.984Z,100665.00
2022-09-05T21:21:34.733Z,100666.38
2022-09-05T21:24:17.922Z,100660.38
2022-09-05T21:26:49.320Z,100651.84
2022-09-05T21:29:32.379Z,100646.00
2022-09-05T21:32:04.009Z,100625.63
2022-09-05T21:34:44.911Z,100640.00
2022-09-05T21:37:15.458Z,100655.69
2022-09-05T21:39:58.421Z,100642.38
2022-09-05T21:46:53.496Z,100628.78
2022-09-05T21:47:41.946Z,100648.78
2022-09-05T21:48:08.895Z,100646.66
2022-09-05T21:50:41.157Z,100650.25
2022-09-05T21:57:11.470Z,100655.59
2022-09-05T21:59:30.518Z,100656.72
2022-09-05T21:59:33.665Z,100606.88
2022-09-05T22:01:58.364Z,100652.97
2022-09-05T22:04:26.733Z,100644.41
2022-09-05T22:07:03.405Z,100619.03
2022-09-05T22:09:31.985Z,100639.69
2022-09-05T22:12:00.055Z,100629.09
2022-09-05T22:14:34.403Z,100640.91
2022-09-05T22:17:04.869Z,100636.41
2022-09-05T22:19:37.829Z,100641.75
2022-09-05T22:22:16.260Z,100615.28
2022-09-05T22:24:51.806Z,100643.53
2022-09-05T22:27:22.530Z,100618.78
2022-09-05T22:29:51.872Z,100633.94
2022-09-05T22:32:33.807Z,100623.47
2022-09-05T22:35:28.052Z,100632.41
2022-09-05T22:37:59.073Z,100625.59
2022-09-05T22:40:27.682Z,100621.25
2022-09-05T22:42:56.972Z,100616.41
2022-09-05T22:45:25.003Z,100623.09
2022-09-05T22:47:54.986Z,100610.94
2022-09-05T22:50:23.373Z,100602.03
2022-09-05T22:52:51.646Z,100598.84
2022-09-05T22:55:19.714Z,100599.06
2022-09-05T22:57:48.143Z,100555.38
2022-09-05T23:00:16.609Z,100598.00
2022-09-05T23:02:47.884Z,100593.59
2022-09-05T23:05:19.584Z,100511.38
2022-09-05T23:07:47.522Z,100524.31
2022-09-05T23:10:15.568Z,100394.84
2022-09-05T23:12:43.402Z,100583.53
2022-09-05T23:15:12.082Z,100579.38
2022-09-05T23:17:40.048Z,100537.97
2022-09-05T23:20:08.795Z,100573.09
2022-09-05T23:22:38.920Z,100568.06
2022-09-05T23:25:07.853Z,100509.66
2022-09-05T23:27:36.749Z,100549.09
2022-09-05T23:30:06.664Z,100577.28
2022-09-05T23:32:35.466Z,100551.38
2022-09-05T23:35:03.744Z,100529.28
2022-09-05T23:37:31.834Z,100577.16
2022-09-05T23:40:01.273Z,100527.69
2022-09-05T23:42:29.345Z,100566.66
2022-09-05T23:44:57.214Z,100576.56
2022-09-05T23:47:25.237Z,100578.03
2022-09-05T23:49:53.459Z,100473.34
2022-09-05T23:52:21.726Z,100590.31
2022-09-05T23:54:49.770Z,100563.19
2022-09-05T23:57:23.649Z,100567.91
2022-09-05T23:59:52.934Z,100536.44
